Terminal Aerodrome Forecast
Issued by NWS

Home | Current Version | Previous Version | Text Only | Print | Product List | Glossary On
Versions: 1 2 3 4 5 6 7 8 9 10 11 12 13 14 15 16 17 18
000
FTUS43 KGRB 031400 AAB
TAFMTW
TAF AMD
KMTW 031439Z 0315/0412 18014G22KT 3SM -SN BKN012
      TEMPO 0315/0318 1/2SM SN FZFG BKN006
     FM031900 17008G16KT 1 1/2SM -SN OVC016
     FM032100 24009KT 6SM -SN SCT015 OVC018
     FM040000 27010KT P6SM -SN SCT009 OVC025
     FM040300 28012G20KT P6SM SCT030 SCT100=

USA.gov is the U.S. government's official web portal to all federal, state and local government web resources and services.